sensor_id;sensor_type;location;lat;lon;timestamp;P1;durP1;ratioP1;P2;durP2;ratioP2
82703;SDS011;72427;42.000;21.464;2023-12-20T00:01:35;197.35;;;96.65;;
82703;SDS011;72427;42.000;21.464;2023-12-20T00:04:01;192.63;;;94.63;;
82703;SDS011;72427;42.000;21.464;2023-12-20T00:06:28;188.45;;;89.93;;
82703;SDS011;72427;42.000;21.464;2023-12-20T00:08:54;191.40;;;91.28;;
82703;SDS011;72427;42.000;21.464;2023-12-20T00:11:20;208.82;;;97.72;;
82703;SDS011;72427;42.000;21.464;2023-12-20T00:13:46;205.75;;;94.65;;
82703;SDS011;72427;42.000;21.464;2023-12-20T00:16:12;203.73;;;94.82;;
82703;SDS011;72427;42.000;21.464;2023-12-20T00:18:38;200.98;;;91.82;;
82703;SDS011;72427;42.000;21.464;2023-12-20T00:21:04;195.55;;;93.28;;
82703;SDS011;72427;42.000;21.464;2023-12-20T00:23:30;191.73;;;91.05;;
82703;SDS011;72427;42.000;21.464;2023-12-20T00:25:56;203.93;;;92.95;;
82703;SDS011;72427;42.000;21.464;2023-12-20T00:28:22;197.70;;;92.40;;
82703;SDS011;72427;42.000;21.464;2023-12-20T00:30:48;200.45;;;100.13;;
82703;SDS011;72427;42.000;21.464;2023-12-20T00:33:15;188.77;;;86.28;;
82703;SDS011;72427;42.000;21.464;2023-12-20T00:35:41;175.57;;;85.88;;
82703;SDS011;72427;42.000;21.464;2023-12-20T00:38:07;174.57;;;84.43;;
82703;SDS011;72427;42.000;21.464;2023-12-20T00:40:34;175.07;;;84.03;;
82703;SDS011;72427;42.000;21.464;2023-12-20T00:43:00;190.07;;;89.18;;
82703;SDS011;72427;42.000;21.464;2023-12-20T00:45:26;174.90;;;85.75;;
82703;SDS011;72427;42.000;21.464;2023-12-20T00:47:52;209.68;;;95.03;;
82703;SDS011;72427;42.000;21.464;2023-12-20T00:50:18;211.43;;;101.68;;
82703;SDS011;72427;42.000;21.464;2023-12-20T00:52:46;215.38;;;104.85;;
82703;SDS011;72427;42.000;21.464;2023-12-20T00:55:12;223.40;;;106.38;;
82703;SDS011;72427;42.000;21.464;2023-12-20T00:57:39;222.15;;;103.93;;
82703;SDS011;72427;42.000;21.464;2023-12-20T01:00:06;222.25;;;106.30;;
82703;SDS011;72427;42.000;21.464;2023-12-20T01:02:34;212.13;;;98.20;;
82703;SDS011;72427;42.000;21.464;2023-12-20T01:05:01;209.73;;;97.93;;
82703;SDS011;72427;42.000;21.464;2023-12-20T01:07:27;217.95;;;101.22;;
82703;SDS011;72427;42.000;21.464;2023-12-20T01:09:54;191.98;;;95.18;;
82703;SDS011;72427;42.000;21.464;2023-12-20T01:12:20;204.30;;;93.95;;
82703;SDS011;72427;42.000;21.464;2023-12-20T01:14:46;196.93;;;92.47;;
82703;SDS011;72427;42.000;21.464;2023-12-20T01:17:12;195.60;;;91.60;;
82703;SDS011;72427;42.000;21.464;2023-12-20T01:19:39;199.48;;;92.40;;
82703;SDS011;72427;42.000;21.464;2023-12-20T01:22:05;216.55;;;107.00;;
82703;SDS011;72427;42.000;21.464;2023-12-20T01:24:31;232.32;;;107.65;;
82703;SDS011;72427;42.000;21.464;2023-12-20T01:26:57;243.10;;;114.35;;
82703;SDS011;72427;42.000;21.464;2023-12-20T01:29:23;242.32;;;116.75;;
82703;SDS011;72427;42.000;21.464;2023-12-20T01:31:49;234.23;;;113.88;;
82703;SDS011;72427;42.000;21.464;2023-12-20T01:34:15;228.15;;;110.50;;
82703;SDS011;72427;42.000;21.464;2023-12-20T01:36:41;241.48;;;118.00;;
82703;SDS011;72427;42.000;21.464;2023-12-20T01:39:07;237.02;;;114.75;;
82703;SDS011;72427;42.000;21.464;2023-12-20T01:41:33;238.88;;;110.55;;
82703;SDS011;72427;42.000;21.464;2023-12-20T01:43:59;210.85;;;98.15;;
82703;SDS011;72427;42.000;21.464;2023-12-20T01:46:25;228.95;;;101.05;;
82703;SDS011;72427;42.000;21.464;2023-12-20T01:48:51;208.18;;;99.35;;
82703;SDS011;72427;42.000;21.464;2023-12-20T01:51:18;204.60;;;93.53;;
82703;SDS011;72427;42.000;21.464;2023-12-20T01:53:45;187.98;;;87.05;;
82703;SDS011;72427;42.000;21.464;2023-12-20T01:56:12;175.57;;;84.00;;
82703;SDS011;72427;42.000;21.464;2023-12-20T01:58:39;179.82;;;83.05;;
82703;SDS011;72427;42.000;21.464;2023-12-20T02:01:07;166.98;;;75.30;;
82703;SDS011;72427;42.000;21.464;2023-12-20T02:03:34;155.48;;;72.38;;
82703;SDS011;72427;42.000;21.464;2023-12-20T02:06:01;150.68;;;71.93;;
82703;SDS011;72427;42.000;21.464;2023-12-20T02:08:27;153.90;;;70.78;;
82703;SDS011;72427;42.000;21.464;2023-12-20T02:10:54;139.85;;;63.00;;
82703;SDS011;72427;42.000;21.464;2023-12-20T02:13:21;137.13;;;60.67;;
82703;SDS011;72427;42.000;21.464;2023-12-20T02:15:47;128.93;;;62.63;;
82703;SDS011;72427;42.000;21.464;2023-12-20T02:18:13;132.07;;;59.20;;
82703;SDS011;72427;42.000;21.464;2023-12-20T02:20:41;126.80;;;59.97;;
82703;SDS011;72427;42.000;21.464;2023-12-20T02:23:07;133.75;;;60.20;;
82703;SDS011;72427;42.000;21.464;2023-12-20T02:25:34;136.82;;;64.45;;
82703;SDS011;72427;42.000;21.464;2023-12-20T02:28:00;135.20;;;59.55;;
82703;SDS011;72427;42.000;21.464;2023-12-20T02:30:26;122.40;;;59.00;;
82703;SDS011;72427;42.000;21.464;2023-12-20T02:32:52;118.28;;;56.15;;
82703;SDS011;72427;42.000;21.464;2023-12-20T02:35:19;121.40;;;54.42;;
82703;SDS011;72427;42.000;21.464;2023-12-20T02:37:45;127.88;;;57.10;;
82703;SDS011;72427;42.000;21.464;2023-12-20T02:40:11;113.93;;;54.97;;
82703;SDS011;72427;42.000;21.464;2023-12-20T02:42:37;112.65;;;54.22;;
82703;SDS011;72427;42.000;21.464;2023-12-20T02:45:03;124.70;;;54.55;;
82703;SDS011;72427;42.000;21.464;2023-12-20T02:47:29;123.13;;;56.15;;
82703;SDS011;72427;42.000;21.464;2023-12-20T02:49:55;110.07;;;50.53;;
82703;SDS011;72427;42.000;21.464;2023-12-20T02:52:23;116.28;;;52.65;;
82703;SDS011;72427;42.000;21.464;2023-12-20T02:54:49;113.68;;;51.63;;
82703;SDS011;72427;42.000;21.464;2023-12-20T02:57:15;119.28;;;55.15;;
82703;SDS011;72427;42.000;21.464;2023-12-20T02:59:41;114.20;;;54.08;;
82703;SDS011;72427;42.000;21.464;2023-12-20T03:02:07;117.57;;;54.08;;
82703;SDS011;72427;42.000;21.464;2023-12-20T03:04:33;121.63;;;53.58;;
82703;SDS011;72427;42.000;21.464;2023-12-20T03:06:59;122.38;;;53.90;;
82703;SDS011;72427;42.000;21.464;2023-12-20T03:09:25;107.82;;;51.92;;
82703;SDS011;72427;42.000;21.464;2023-12-20T03:11:51;109.43;;;52.65;;
82703;SDS011;72427;42.000;21.464;2023-12-20T03:14:17;135.88;;;57.88;;
82703;SDS011;72427;42.000;21.464;2023-12-20T03:16:47;118.68;;;55.72;;
82703;SDS011;72427;42.000;21.464;2023-12-20T03:19:13;125.22;;;56.65;;
82703;SDS011;72427;42.000;21.464;2023-12-20T03:21:39;118.32;;;56.25;;
82703;SDS011;72427;42.000;21.464;2023-12-20T03:24:05;112.75;;;55.00;;
82703;SDS011;72427;42.000;21.464;2023-12-20T03:26:31;120.18;;;58.53;;
82703;SDS011;72427;42.000;21.464;2023-12-20T03:28:57;121.97;;;54.97;;
82703;SDS011;72427;42.000;21.464;2023-12-20T03:31:23;129.07;;;59.15;;
82703;SDS011;72427;42.000;21.464;2023-12-20T03:33:49;124.95;;;56.55;;
82703;SDS011;72427;42.000;21.464;2023-12-20T03:36:17;121.43;;;57.33;;
82703;SDS011;72427;42.000;21.464;2023-12-20T03:38:43;126.50;;;57.20;;
82703;SDS011;72427;42.000;21.464;2023-12-20T03:41:09;129.63;;;61.15;;
82703;SDS011;72427;42.000;21.464;2023-12-20T03:43:35;129.05;;;61.03;;
82703;SDS011;72427;42.000;21.464;2023-12-20T03:46:01;131.98;;;60.97;;
82703;SDS011;72427;42.000;21.464;2023-12-20T03:48:28;125.35;;;57.40;;
82703;SDS011;72427;42.000;21.464;2023-12-20T03:50:54;125.50;;;57.63;;
82703;SDS011;72427;42.000;21.464;2023-12-20T03:53:20;124.90;;;58.25;;
82703;SDS011;72427;42.000;21.464;2023-12-20T03:55:46;112.53;;;53.92;;
82703;SDS011;72427;42.000;21.464;2023-12-20T03:58:13;114.15;;;54.15;;
82703;SDS011;72427;42.000;21.464;2023-12-20T04:00:39;126.05;;;58.22;;
82703;SDS011;72427;42.000;21.464;2023-12-20T04:03:05;122.53;;;56.97;;
82703;SDS011;72427;42.000;21.464;2023-12-20T04:05:31;153.13;;;67.43;;
82703;SDS011;72427;42.000;21.464;2023-12-20T04:07:57;174.10;;;66.88;;
82703;SDS011;72427;42.000;21.464;2023-12-20T04:10:23;146.65;;;62.65;;
82703;SDS011;72427;42.000;21.464;2023-12-20T04:12:49;152.45;;;59.65;;
82703;SDS011;72427;42.000;21.464;2023-12-20T04:15:15;127.55;;;47.65;;
82703;SDS011;72427;42.000;21.464;2023-12-20T04:17:41;133.40;;;54.60;;
82703;SDS011;72427;42.000;21.464;2023-12-20T04:20:08;142.50;;;52.08;;
82703;SDS011;72427;42.000;21.464;2023-12-20T04:22:34;135.50;;;49.63;;
82703;SDS011;72427;42.000;21.464;2023-12-20T04:25:00;151.90;;;54.08;;
82703;SDS011;72427;42.000;21.464;2023-12-20T04:27:26;142.15;;;56.83;;
82703;SDS011;72427;42.000;21.464;2023-12-20T04:29:52;158.13;;;54.72;;
82703;SDS011;72427;42.000;21.464;2023-12-20T04:32:18;154.85;;;52.65;;
82703;SDS011;72427;42.000;21.464;2023-12-20T04:34:44;160.98;;;56.13;;
82703;SDS011;72427;42.000;21.464;2023-12-20T04:37:10;168.07;;;52.58;;
82703;SDS011;72427;42.000;21.464;2023-12-20T04:39:37;218.95;;;66.70;;
82703;SDS011;72427;42.000;21.464;2023-12-20T04:42:03;200.80;;;68.82;;
82703;SDS011;72427;42.000;21.464;2023-12-20T04:44:29;231.02;;;71.43;;
82703;SDS011;72427;42.000;21.464;2023-12-20T04:46:56;221.75;;;65.38;;
82703;SDS011;72427;42.000;21.464;2023-12-20T04:49:22;177.00;;;63.13;;
82703;SDS011;72427;42.000;21.464;2023-12-20T04:51:48;191.43;;;70.57;;
82703;SDS011;72427;42.000;21.464;2023-12-20T04:54:14;206.57;;;74.63;;
82703;SDS011;72427;42.000;21.464;2023-12-20T04:56:41;172.15;;;64.43;;
82703;SDS011;72427;42.000;21.464;2023-12-20T04:59:07;196.25;;;100.93;;
82703;SDS011;72427;42.000;21.464;2023-12-20T05:01:33;191.23;;;67.78;;
82703;SDS011;72427;42.000;21.464;2023-12-20T05:03:59;175.57;;;68.38;;
82703;SDS011;72427;42.000;21.464;2023-12-20T05:06:25;186.82;;;71.20;;
82703;SDS011;72427;42.000;21.464;2023-12-20T05:08:51;179.43;;;80.00;;
82703;SDS011;72427;42.000;21.464;2023-12-20T05:11:17;251.80;;;103.28;;
82703;SDS011;72427;42.000;21.464;2023-12-20T05:13:43;190.73;;;80.72;;
82703;SDS011;72427;42.000;21.464;2023-12-20T05:16:09;175.95;;;71.68;;
82703;SDS011;72427;42.000;21.464;2023-12-20T05:18:36;183.65;;;73.07;;
82703;SDS011;72427;42.000;21.464;2023-12-20T05:21:02;160.13;;;68.55;;
82703;SDS011;72427;42.000;21.464;2023-12-20T05:23:28;163.95;;;68.25;;
82703;SDS011;72427;42.000;21.464;2023-12-20T05:25:54;167.68;;;62.42;;
82703;SDS011;72427;42.000;21.464;2023-12-20T05:28:20;147.82;;;67.03;;
82703;SDS011;72427;42.000;21.464;2023-12-20T05:30:46;184.43;;;69.55;;
82703;SDS011;72427;42.000;21.464;2023-12-20T05:33:12;212.27;;;65.28;;
82703;SDS011;72427;42.000;21.464;2023-12-20T05:35:38;172.23;;;63.25;;
82703;SDS011;72427;42.000;21.464;2023-12-20T05:38:04;167.35;;;68.00;;
82703;SDS011;72427;42.000;21.464;2023-12-20T05:40:31;167.90;;;64.43;;
82703;SDS011;72427;42.000;21.464;2023-12-20T05:42:57;153.25;;;62.83;;
82703;SDS011;72427;42.000;21.464;2023-12-20T05:45:23;154.75;;;62.50;;
82703;SDS011;72427;42.000;21.464;2023-12-20T05:47:49;157.80;;;61.22;;
82703;SDS011;72427;42.000;21.464;2023-12-20T05:50:15;163.55;;;62.45;;
82703;SDS011;72427;42.000;21.464;2023-12-20T05:52:41;158.57;;;63.85;;
82703;SDS011;72427;42.000;21.464;2023-12-20T05:55:07;170.95;;;64.07;;
82703;SDS011;72427;42.000;21.464;2023-12-20T05:57:33;173.40;;;64.93;;
82703;SDS011;72427;42.000;21.464;2023-12-20T05:59:59;193.80;;;67.32;;
82703;SDS011;72427;42.000;21.464;2023-12-20T06:02:25;206.82;;;63.65;;
82703;SDS011;72427;42.000;21.464;2023-12-20T06:04:51;164.77;;;68.95;;
82703;SDS011;72427;42.000;21.464;2023-12-20T06:07:17;158.57;;;62.13;;
82703;SDS011;72427;42.000;21.464;2023-12-20T06:09:44;183.77;;;66.63;;
82703;SDS011;72427;42.000;21.464;2023-12-20T06:12:10;188.55;;;65.57;;
82703;SDS011;72427;42.000;21.464;2023-12-20T06:14:36;165.13;;;70.80;;
82703;SDS011;72427;42.000;21.464;2023-12-20T06:17:02;215.32;;;87.70;;
82703;SDS011;72427;42.000;21.464;2023-12-20T06:19:28;179.38;;;68.43;;
82703;SDS011;72427;42.000;21.464;2023-12-20T06:21:54;155.85;;;61.53;;
82703;SDS011;72427;42.000;21.464;2023-12-20T06:24:20;146.00;;;62.75;;
82703;SDS011;72427;42.000;21.464;2023-12-20T06:26:46;166.07;;;67.88;;
82703;SDS011;72427;42.000;21.464;2023-12-20T06:29:12;165.95;;;64.50;;
82703;SDS011;72427;42.000;21.464;2023-12-20T06:31:39;150.48;;;62.47;;
82703;SDS011;72427;42.000;21.464;2023-12-20T06:34:05;137.75;;;58.70;;
82703;SDS011;72427;42.000;21.464;2023-12-20T06:36:31;148.82;;;62.17;;
82703;SDS011;72427;42.000;21.464;2023-12-20T06:38:57;234.23;;;71.57;;
82703;SDS011;72427;42.000;21.464;2023-12-20T06:41:23;152.40;;;62.05;;
82703;SDS011;72427;42.000;21.464;2023-12-20T06:43:49;149.27;;;61.67;;
82703;SDS011;72427;42.000;21.464;2023-12-20T06:46:16;173.90;;;67.40;;
82703;SDS011;72427;42.000;21.464;2023-12-20T06:48:43;177.27;;;67.45;;
82703;SDS011;72427;42.000;21.464;2023-12-20T06:51:15;155.02;;;62.92;;
82703;SDS011;72427;42.000;21.464;2023-12-20T06:53:42;156.13;;;62.70;;
82703;SDS011;72427;42.000;21.464;2023-12-20T06:56:10;159.27;;;63.75;;
82703;SDS011;72427;42.000;21.464;2023-12-20T06:58:39;155.02;;;65.03;;
82703;SDS011;72427;42.000;21.464;2023-12-20T07:01:05;174.13;;;67.55;;
82703;SDS011;72427;42.000;21.464;2023-12-20T07:03:31;167.25;;;67.05;;
82703;SDS011;72427;42.000;21.464;2023-12-20T07:05:57;161.05;;;65.40;;
82703;SDS011;72427;42.000;21.464;2023-12-20T07:08:23;177.00;;;64.10;;
82703;SDS011;72427;42.000;21.464;2023-12-20T07:10:49;184.48;;;70.65;;
82703;SDS011;72427;42.000;21.464;2023-12-20T07:13:15;167.00;;;66.00;;
82703;SDS011;72427;42.000;21.464;2023-12-20T07:15:41;178.30;;;66.53;;
82703;SDS011;72427;42.000;21.464;2023-12-20T07:18:08;151.95;;;65.50;;
82703;SDS011;72427;42.000;21.464;2023-12-20T07:20:34;166.25;;;67.70;;
82703;SDS011;72427;42.000;21.464;2023-12-20T07:23:00;165.90;;;65.70;;
82703;SDS011;72427;42.000;21.464;2023-12-20T07:25:26;165.05;;;61.95;;
82703;SDS011;72427;42.000;21.464;2023-12-20T07:27:52;174.23;;;68.07;;
82703;SDS011;72427;42.000;21.464;2023-12-20T07:30:18;162.38;;;65.35;;
82703;SDS011;72427;42.000;21.464;2023-12-20T07:32:44;180.98;;;67.80;;
82703;SDS011;72427;42.000;21.464;2023-12-20T07:35:10;171.50;;;63.30;;
82703;SDS011;72427;42.000;21.464;2023-12-20T07:37:36;163.98;;;62.80;;
82703;SDS011;72427;42.000;21.464;2023-12-20T07:40:02;176.20;;;65.15;;
82703;SDS011;72427;42.000;21.464;2023-12-20T07:42:28;188.18;;;68.15;;
82703;SDS011;72427;42.000;21.464;2023-12-20T07:44:54;195.55;;;70.32;;
82703;SDS011;72427;42.000;21.464;2023-12-20T07:56:31;183.50;;;72.70;;
82703;SDS011;72427;42.000;21.464;2023-12-20T07:58:57;180.60;;;68.38;;
82703;SDS011;72427;42.000;21.464;2023-12-20T08:01:23;178.38;;;69.28;;
82703;SDS011;72427;42.000;21.464;2023-12-20T08:03:50;171.27;;;66.82;;
82703;SDS011;72427;42.000;21.464;2023-12-20T08:06:16;167.18;;;65.68;;
82703;SDS011;72427;42.000;21.464;2023-12-20T08:08:42;169.00;;;64.88;;
82703;SDS011;72427;42.000;21.464;2023-12-20T08:11:08;177.00;;;66.78;;
82703;SDS011;72427;42.000;21.464;2023-12-20T08:13:34;179.30;;;69.05;;
82703;SDS011;72427;42.000;21.464;2023-12-20T08:16:00;177.02;;;67.13;;
82703;SDS011;72427;42.000;21.464;2023-12-20T08:21:31;193.23;;;72.78;;
82703;SDS011;72427;42.000;21.464;2023-12-20T08:23:57;185.50;;;69.50;;
82703;SDS011;72427;42.000;21.464;2023-12-20T08:26:25;161.05;;;65.13;;
82703;SDS011;72427;42.000;21.464;2023-12-20T08:28:51;172.30;;;62.95;;
82703;SDS011;72427;42.000;21.464;2023-12-20T08:31:18;188.25;;;66.32;;
82703;SDS011;72427;42.000;21.464;2023-12-20T08:33:45;185.48;;;69.38;;
82703;SDS011;72427;42.000;21.464;2023-12-20T08:36:11;175.20;;;70.60;;
82703;SDS011;72427;42.000;21.464;2023-12-20T08:38:37;174.88;;;64.82;;
82703;SDS011;72427;42.000;21.464;2023-12-20T08:41:04;182.95;;;68.57;;
82703;SDS011;72427;42.000;21.464;2023-12-20T08:43:30;158.82;;;63.58;;
82703;SDS011;72427;42.000;21.464;2023-12-20T08:45:57;163.20;;;62.80;;
82703;SDS011;72427;42.000;21.464;2023-12-20T08:48:23;183.90;;;65.03;;
82703;SDS011;72427;42.000;21.464;2023-12-20T08:50:49;154.65;;;61.53;;
82703;SDS011;72427;42.000;21.464;2023-12-20T08:53:17;175.90;;;65.20;;
82703;SDS011;72427;42.000;21.464;2023-12-20T08:55:43;163.45;;;65.03;;
82703;SDS011;72427;42.000;21.464;2023-12-20T08:58:09;177.38;;;63.17;;
82703;SDS011;72427;42.000;21.464;2023-12-20T09:00:35;189.20;;;70.80;;
82703;SDS011;72427;42.000;21.464;2023-12-20T09:03:01;178.18;;;68.03;;
82703;SDS011;72427;42.000;21.464;2023-12-20T09:05:28;176.55;;;67.82;;
82703;SDS011;72427;42.000;21.464;2023-12-20T09:07:55;190.90;;;71.20;;
82703;SDS011;72427;42.000;21.464;2023-12-20T09:10:21;171.60;;;68.88;;
82703;SDS011;72427;42.000;21.464;2023-12-20T09:12:53;170.30;;;65.70;;
82703;SDS011;72427;42.000;21.464;2023-12-20T09:15:23;197.07;;;75.85;;
82703;SDS011;72427;42.000;21.464;2023-12-20T09:17:49;175.95;;;70.50;;
82703;SDS011;72427;42.000;21.464;2023-12-20T09:20:15;187.27;;;68.85;;
82703;SDS011;72427;42.000;21.464;2023-12-20T09:22:41;151.20;;;51.33;;
82703;SDS011;72427;42.000;21.464;2023-12-20T09:25:07;134.70;;;44.10;;
82703;SDS011;72427;42.000;21.464;2023-12-20T09:27:33;162.45;;;58.78;;
82703;SDS011;72427;42.000;21.464;2023-12-20T09:29:59;163.65;;;58.30;;
82703;SDS011;72427;42.000;21.464;2023-12-20T09:32:25;182.68;;;64.50;;
82703;SDS011;72427;42.000;21.464;2023-12-20T09:34:51;147.90;;;54.35;;
82703;SDS011;72427;42.000;21.464;2023-12-20T09:37:17;162.13;;;62.70;;
82703;SDS011;72427;42.000;21.464;2023-12-20T09:39:44;172.00;;;66.63;;
82703;SDS011;72427;42.000;21.464;2023-12-20T09:42:11;171.05;;;63.97;;
82703;SDS011;72427;42.000;21.464;2023-12-20T09:44:37;169.15;;;62.20;;
82703;SDS011;72427;42.000;21.464;2023-12-20T09:47:07;163.90;;;61.28;;
82703;SDS011;72427;42.000;21.464;2023-12-20T09:49:33;155.65;;;58.88;;
82703;SDS011;72427;42.000;21.464;2023-12-20T09:52:00;149.25;;;60.25;;
82703;SDS011;72427;42.000;21.464;2023-12-20T09:54:26;132.25;;;53.58;;
82703;SDS011;72427;42.000;21.464;2023-12-20T09:56:54;165.10;;;64.82;;
82703;SDS011;72427;42.000;21.464;2023-12-20T09:59:20;172.23;;;66.65;;
82703;SDS011;72427;42.000;21.464;2023-12-20T10:01:46;168.85;;;64.90;;
82703;SDS011;72427;42.000;21.464;2023-12-20T10:04:12;158.48;;;56.90;;
82703;SDS011;72427;42.000;21.464;2023-12-20T10:06:42;157.95;;;62.60;;
82703;SDS011;72427;42.000;21.464;2023-12-20T10:11:35;149.23;;;61.70;;
82703;SDS011;72427;42.000;21.464;2023-12-20T10:14:05;180.45;;;68.68;;
82703;SDS011;72427;42.000;21.464;2023-12-20T10:16:31;179.25;;;67.63;;
82703;SDS011;72427;42.000;21.464;2023-12-20T10:18:58;177.48;;;66.03;;
82703;SDS011;72427;42.000;21.464;2023-12-20T10:21:24;170.68;;;64.53;;
82703;SDS011;72427;42.000;21.464;2023-12-20T10:23:54;174.93;;;72.13;;
82703;SDS011;72427;42.000;21.464;2023-12-20T10:26:24;176.45;;;63.78;;
82703;SDS011;72427;42.000;21.464;2023-12-20T10:28:51;168.20;;;62.38;;
82703;SDS011;72427;42.000;21.464;2023-12-20T10:31:27;152.15;;;59.50;;
82703;SDS011;72427;42.000;21.464;2023-12-20T10:36:19;183.95;;;71.82;;
82703;SDS011;72427;42.000;21.464;2023-12-20T10:38:46;182.98;;;68.20;;
82703;SDS011;72427;42.000;21.464;2023-12-20T10:41:14;190.98;;;75.70;;
82703;SDS011;72427;42.000;21.464;2023-12-20T10:43:42;166.75;;;59.17;;
82703;SDS011;72427;42.000;21.464;2023-12-20T10:46:08;183.73;;;69.47;;
82703;SDS011;72427;42.000;21.464;2023-12-20T10:48:35;191.27;;;75.53;;
82703;SDS011;72427;42.000;21.464;2023-12-20T10:51:01;188.48;;;75.35;;
82703;SDS011;72427;42.000;21.464;2023-12-20T10:53:27;172.63;;;68.65;;
82703;SDS011;72427;42.000;21.464;2023-12-20T10:55:55;178.00;;;73.10;;
82703;SDS011;72427;42.000;21.464;2023-12-20T10:58:24;185.15;;;77.45;;
82703;SDS011;72427;42.000;21.464;2023-12-20T11:00:52;165.50;;;67.85;;
82703;SDS011;72427;42.000;21.464;2023-12-20T11:03:23;169.10;;;75.00;;
82703;SDS011;72427;42.000;21.464;2023-12-20T11:05:52;171.73;;;79.60;;
82703;SDS011;72427;42.000;21.464;2023-12-20T11:10:49;188.20;;;86.72;;
82703;SDS011;72427;42.000;21.464;2023-12-20T11:13:20;151.55;;;69.63;;
82703;SDS011;72427;42.000;21.464;2023-12-20T11:15:46;164.90;;;85.65;;
82703;SDS011;72427;42.000;21.464;2023-12-20T11:18:13;165.25;;;85.82;;
82703;SDS011;72427;42.000;21.464;2023-12-20T11:20:39;163.35;;;81.95;;
82703;SDS011;72427;42.000;21.464;2023-12-20T11:23:06;173.82;;;86.43;;
82703;SDS011;72427;42.000;21.464;2023-12-20T11:28:20;166.18;;;82.55;;
82703;SDS011;72427;42.000;21.464;2023-12-20T11:30:47;158.35;;;82.28;;
82703;SDS011;72427;42.000;21.464;2023-12-20T11:33:14;172.75;;;88.20;;
82703;SDS011;72427;42.000;21.464;2023-12-20T11:35:40;175.20;;;89.10;;
82703;SDS011;72427;42.000;21.464;2023-12-20T11:38:07;179.25;;;89.13;;
82703;SDS011;72427;42.000;21.464;2023-12-20T11:40:34;180.57;;;87.85;;
82703;SDS011;72427;42.000;21.464;2023-12-20T11:43:01;187.20;;;90.68;;
82703;SDS011;72427;42.000;21.464;2023-12-20T11:45:27;196.32;;;97.32;;
82703;SDS011;72427;42.000;21.464;2023-12-20T11:47:53;184.80;;;94.70;;
82703;SDS011;72427;42.000;21.464;2023-12-20T11:50:20;182.82;;;92.10;;
82703;SDS011;72427;42.000;21.464;2023-12-20T11:52:46;184.68;;;93.18;;
82703;SDS011;72427;42.000;21.464;2023-12-20T11:55:13;188.00;;;96.40;;
82703;SDS011;72427;42.000;21.464;2023-12-20T11:57:39;196.52;;;102.05;;
82703;SDS011;72427;42.000;21.464;2023-12-20T12:00:05;203.93;;;104.43;;
82703;SDS011;72427;42.000;21.464;2023-12-20T12:02:32;202.85;;;105.47;;
82703;SDS011;72427;42.000;21.464;2023-12-20T12:04:59;219.52;;;112.60;;
82703;SDS011;72427;42.000;21.464;2023-12-20T12:07:25;224.65;;;114.20;;
82703;SDS011;72427;42.000;21.464;2023-12-20T12:09:51;216.95;;;115.93;;
82703;SDS011;72427;42.000;21.464;2023-12-20T12:12:17;216.27;;;119.18;;
82703;SDS011;72427;42.000;21.464;2023-12-20T12:14:45;215.45;;;112.68;;
82703;SDS011;72427;42.000;21.464;2023-12-20T12:17:11;209.73;;;111.00;;
82703;SDS011;72427;42.000;21.464;2023-12-20T12:19:38;212.95;;;109.38;;
82703;SDS011;72427;42.000;21.464;2023-12-20T12:24:45;202.38;;;108.13;;
82703;SDS011;72427;42.000;21.464;2023-12-20T12:27:12;208.25;;;102.85;;
82703;SDS011;72427;42.000;21.464;2023-12-20T12:29:39;207.07;;;103.85;;
82703;SDS011;72427;42.000;21.464;2023-12-20T12:32:05;188.45;;;93.68;;
82703;SDS011;72427;42.000;21.464;2023-12-20T12:34:33;194.00;;;91.28;;
82703;SDS011;72427;42.000;21.464;2023-12-20T12:37:00;192.90;;;93.15;;
82703;SDS011;72427;42.000;21.464;2023-12-20T12:39:26;194.13;;;92.95;;
82703;SDS011;72427;42.000;21.464;2023-12-20T12:41:52;197.68;;;98.53;;
82703;SDS011;72427;42.000;21.464;2023-12-20T12:44:19;190.93;;;92.22;;
82703;SDS011;72427;42.000;21.464;2023-12-20T12:46:45;174.77;;;89.30;;
82703;SDS011;72427;42.000;21.464;2023-12-20T12:49:12;163.77;;;81.15;;
82703;SDS011;72427;42.000;21.464;2023-12-20T12:51:38;188.50;;;93.47;;
82703;SDS011;72427;42.000;21.464;2023-12-20T12:54:04;178.60;;;91.28;;
82703;SDS011;72427;42.000;21.464;2023-12-20T12:56:30;184.38;;;93.80;;
82703;SDS011;72427;42.000;21.464;2023-12-20T12:58:56;188.35;;;99.20;;
82703;SDS011;72427;42.000;21.464;2023-12-20T13:01:23;186.25;;;97.43;;
82703;SDS011;72427;42.000;21.464;2023-12-20T13:03:49;191.13;;;97.78;;
82703;SDS011;72427;42.000;21.464;2023-12-20T13:06:15;195.90;;;101.60;;
82703;SDS011;72427;42.000;21.464;2023-12-20T13:08:41;196.90;;;102.60;;
82703;SDS011;72427;42.000;21.464;2023-12-20T13:11:07;189.75;;;92.57;;
82703;SDS011;72427;42.000;21.464;2023-12-20T13:13:33;193.75;;;91.50;;
82703;SDS011;72427;42.000;21.464;2023-12-20T13:15:59;172.80;;;86.50;;
82703;SDS011;72427;42.000;21.464;2023-12-20T13:18:26;192.02;;;94.63;;
82703;SDS011;72427;42.000;21.464;2023-12-20T13:20:52;183.90;;;89.10;;
82703;SDS011;72427;42.000;21.464;2023-12-20T13:23:18;181.57;;;87.80;;
82703;SDS011;72427;42.000;21.464;2023-12-20T13:25:44;180.55;;;87.43;;
82703;SDS011;72427;42.000;21.464;2023-12-20T13:28:13;179.38;;;83.43;;
82703;SDS011;72427;42.000;21.464;2023-12-20T13:30:39;180.18;;;85.05;;
82703;SDS011;72427;42.000;21.464;2023-12-20T13:33:05;175.15;;;82.95;;
82703;SDS011;72427;42.000;21.464;2023-12-20T13:35:32;175.05;;;88.20;;
82703;SDS011;72427;42.000;21.464;2023-12-20T13:37:58;184.95;;;91.38;;
82703;SDS011;72427;42.000;21.464;2023-12-20T13:40:24;179.02;;;91.05;;
82703;SDS011;72427;42.000;21.464;2023-12-20T13:42:50;189.07;;;94.25;;
82703;SDS011;72427;42.000;21.464;2023-12-20T13:45:16;188.95;;;94.28;;
82703;SDS011;72427;42.000;21.464;2023-12-20T13:47:42;179.98;;;90.75;;
82703;SDS011;72427;42.000;21.464;2023-12-20T13:50:08;185.32;;;92.32;;
82703;SDS011;72427;42.000;21.464;2023-12-20T13:52:35;184.82;;;88.85;;
82703;SDS011;72427;42.000;21.464;2023-12-20T13:55:01;180.30;;;91.28;;
82703;SDS011;72427;42.000;21.464;2023-12-20T13:57:27;180.45;;;92.13;;
82703;SDS011;72427;42.000;21.464;2023-12-20T13:59:54;177.38;;;89.35;;
82703;SDS011;72427;42.000;21.464;2023-12-20T14:02:22;181.65;;;88.60;;
82703;SDS011;72427;42.000;21.464;2023-12-20T14:04:48;178.55;;;83.63;;
82703;SDS011;72427;42.000;21.464;2023-12-20T14:07:15;177.57;;;80.55;;
82703;SDS011;72427;42.000;21.464;2023-12-20T14:09:41;169.13;;;80.43;;
82703;SDS011;72427;42.000;21.464;2023-12-20T14:12:10;173.95;;;79.78;;
82703;SDS011;72427;42.000;21.464;2023-12-20T14:14:36;179.68;;;79.68;;
82703;SDS011;72427;42.000;21.464;2023-12-20T14:17:02;183.57;;;83.07;;